sensor_id;sensor_type;location;lat;lon;timestamp;P1;P2;P0
70520;PMS5003;58442;52.716;23.560;2023-08-17T00:01:17;22;22;16
70520;PMS5003;58442;52.716;23.560;2023-08-17T00:03:27;19;19;17
70520;PMS5003;58442;52.716;23.560;2023-08-17T00:05:29;20;20;15
70520;PMS5003;58442;52.716;23.560;2023-08-17T00:07:34;16;16;12
70520;PMS5003;58442;52.716;23.560;2023-08-17T00:09:35;20;20;16
70520;PMS5003;58442;52.716;23.560;2023-08-17T00:11:42;20;20;14
70520;PMS5003;58442;52.716;23.560;2023-08-17T00:13:43;22;22;16
70520;PMS5003;58442;52.716;23.560;2023-08-17T00:15:45;17;17;13
70520;PMS5003;58442;52.716;23.560;2023-08-17T00:17:46;19;19;15
70520;PMS5003;58442;52.716;23.560;2023-08-17T00:19:57;21;21;15
70520;PMS5003;58442;52.716;23.560;2023-08-17T00:21:58;19;19;13
70520;PMS5003;58442;52.716;23.560;2023-08-17T00:23:59;21;21;18
70520;PMS5003;58442;52.716;23.560;2023-08-17T00:26:01;21;21;17
70520;PMS5003;58442;52.716;23.560;2023-08-17T00:28:11;19;19;14
70520;PMS5003;58442;52.716;23.560;2023-08-17T00:30:13;24;24;17
70520;PMS5003;58442;52.716;23.560;2023-08-17T00:32:14;21;21;16
70520;PMS5003;58442;52.716;23.560;2023-08-17T00:34:16;19;19;14
70520;PMS5003;58442;52.716;23.560;2023-08-17T00:36:26;21;21;16
70520;PMS5003;58442;52.716;23.560;2023-08-17T00:38:27;23;23;17
70520;PMS5003;58442;52.716;23.560;2023-08-17T00:40:29;21;21;14
70520;PMS5003;58442;52.716;23.560;2023-08-17T00:42:30;24;24;16
70520;PMS5003;58442;52.716;23.560;2023-08-17T00:44:41;22;22;16
70520;PMS5003;58442;52.716;23.560;2023-08-17T00:46:42;22;22;18
70520;PMS5003;58442;52.716;23.560;2023-08-17T00:48:44;21;21;15
70520;PMS5003;58442;52.716;23.560;2023-08-17T00:50:46;19;19;14
70520;PMS5003;58442;52.716;23.560;2023-08-17T00:52:55;23;23;17
70520;PMS5003;58442;52.716;23.560;2023-08-17T00:54:58;19;19;15
70520;PMS5003;58442;52.716;23.560;2023-08-17T00:57:01;21;21;16
70520;PMS5003;58442;52.716;23.560;2023-08-17T00:59:07;26;26;15
70520;PMS5003;58442;52.716;23.560;2023-08-17T01:01:10;19;19;16
70520;PMS5003;58442;52.716;23.560;2023-08-17T01:03:12;20;20;14
70520;PMS5003;58442;52.716;23.560;2023-08-17T01:05:14;19;19;15
70520;PMS5003;58442;52.716;23.560;2023-08-17T01:07:16;19;19;14
70520;PMS5003;58442;52.716;23.560;2023-08-17T01:09:25;23;23;17
70520;PMS5003;58442;52.716;23.560;2023-08-17T01:11:29;20;20;15
70520;PMS5003;58442;52.716;23.560;2023-08-17T01:13:39;19;19;15
70520;PMS5003;58442;52.716;23.560;2023-08-17T01:15:52;27;27;19
70520;PMS5003;58442;52.716;23.560;2023-08-17T01:17:58;23;23;16
70520;PMS5003;58442;52.716;23.560;2023-08-17T01:20:07;22;22;16
70520;PMS5003;58442;52.716;23.560;2023-08-17T01:22:14;20;20;16
70520;PMS5003;58442;52.716;23.560;2023-08-17T01:24:18;20;20;16
70520;PMS5003;58442;52.716;23.560;2023-08-17T01:26:20;20;20;14
70520;PMS5003;58442;52.716;23.560;2023-08-17T01:28:23;20;20;18
70520;PMS5003;58442;52.716;23.560;2023-08-17T01:30:24;22;22;15
70520;PMS5003;58442;52.716;23.560;2023-08-17T01:32:48;23;23;16
70520;PMS5003;58442;52.716;23.560;2023-08-17T01:34:44;23;23;16
70520;PMS5003;58442;52.716;23.560;2023-08-17T01:36:52;23;23;19
70520;PMS5003;58442;52.716;23.560;2023-08-17T01:38:59;21;21;16
70520;PMS5003;58442;52.716;23.560;2023-08-17T01:41:02;18;18;12
70520;PMS5003;58442;52.716;23.560;2023-08-17T01:43:05;24;24;15
70520;PMS5003;58442;52.716;23.560;2023-08-17T01:45:08;19;19;14
70520;PMS5003;58442;52.716;23.560;2023-08-17T01:47:13;19;19;17
70520;PMS5003;58442;52.716;23.560;2023-08-17T01:49:15;22;22;17
70520;PMS5003;58442;52.716;23.560;2023-08-17T01:51:17;18;18;11
70520;PMS5003;58442;52.716;23.560;2023-08-17T01:53:22;19;19;15
70520;PMS5003;58442;52.716;23.560;2023-08-17T01:55:28;21;21;16
70520;PMS5003;58442;52.716;23.560;2023-08-17T01:57:29;26;24;19
70520;PMS5003;58442;52.716;23.560;2023-08-17T01:59:31;24;24;17
70520;PMS5003;58442;52.716;23.560;2023-08-17T02:01:32;22;22;18
70520;PMS5003;58442;52.716;23.560;2023-08-17T02:03:43;25;25;19
70520;PMS5003;58442;52.716;23.560;2023-08-17T02:05:47;24;24;18
70520;PMS5003;58442;52.716;23.560;2023-08-17T02:07:48;21;21;18
70520;PMS5003;58442;52.716;23.560;2023-08-17T02:09:50;22;22;15
70520;PMS5003;58442;52.716;23.560;2023-08-17T02:11:57;20;20;15
70520;PMS5003;58442;52.716;23.560;2023-08-17T02:13:59;22;22;16
70520;PMS5003;58442;52.716;23.560;2023-08-17T02:16:00;23;23;17
70520;PMS5003;58442;52.716;23.560;2023-08-17T02:18:02;21;21;17
70520;PMS5003;58442;52.716;23.560;2023-08-17T02:20:12;21;21;16
70520;PMS5003;58442;52.716;23.560;2023-08-17T02:22:15;19;19;16
70520;PMS5003;58442;52.716;23.560;2023-08-17T02:24:16;20;20;15
70520;PMS5003;58442;52.716;23.560;2023-08-17T02:26:18;21;21;17
70520;PMS5003;58442;52.716;23.560;2023-08-17T02:28:27;22;22;18
70520;PMS5003;58442;52.716;23.560;2023-08-17T02:30:28;24;24;18
70520;PMS5003;58442;52.716;23.560;2023-08-17T02:32:30;19;19;16
70520;PMS5003;58442;52.716;23.560;2023-08-17T02:34:31;20;20;15
70520;PMS5003;58442;52.716;23.560;2023-08-17T02:36:42;22;22;18
70520;PMS5003;58442;52.716;23.560;2023-08-17T02:38:43;22;22;17
70520;PMS5003;58442;52.716;23.560;2023-08-17T02:40:44;22;22;16
70520;PMS5003;58442;52.716;23.560;2023-08-17T02:42:46;25;25;17
70520;PMS5003;58442;52.716;23.560;2023-08-17T02:44:56;19;19;18
70520;PMS5003;58442;52.716;23.560;2023-08-17T02:46:58;16;16;12
70520;PMS5003;58442;52.716;23.560;2023-08-17T02:48:59;21;21;17
70520;PMS5003;58442;52.716;23.560;2023-08-17T02:51:00;22;22;15
70520;PMS5003;58442;52.716;23.560;2023-08-17T02:53:11;24;24;18
70520;PMS5003;58442;52.716;23.560;2023-08-17T02:55:12;21;21;16
70520;PMS5003;58442;52.716;23.560;2023-08-17T02:57:14;19;19;14
70520;PMS5003;58442;52.716;23.560;2023-08-17T02:59:15;21;21;15
70520;PMS5003;58442;52.716;23.560;2023-08-17T03:01:26;22;22;18
70520;PMS5003;58442;52.716;23.560;2023-08-17T03:03:27;23;23;18
70520;PMS5003;58442;52.716;23.560;2023-08-17T03:05:29;22;22;17
70520;PMS5003;58442;52.716;23.560;2023-08-17T03:07:30;25;25;16
70520;PMS5003;58442;52.716;23.560;2023-08-17T03:09:41;23;23;16
70520;PMS5003;58442;52.716;23.560;2023-08-17T03:11:42;20;20;15
70520;PMS5003;58442;52.716;23.560;2023-08-17T03:13:43;27;26;19
70520;PMS5003;58442;52.716;23.560;2023-08-17T03:15:48;22;22;16
70520;PMS5003;58442;52.716;23.560;2023-08-17T03:17:56;25;25;16
70520;PMS5003;58442;52.716;23.560;2023-08-17T03:19:57;23;23;17
70520;PMS5003;58442;52.716;23.560;2023-08-17T03:22:00;24;24;18
70520;PMS5003;58442;52.716;23.560;2023-08-17T03:24:02;18;18;13
70520;PMS5003;58442;52.716;23.560;2023-08-17T03:26:10;22;22;16
70520;PMS5003;58442;52.716;23.560;2023-08-17T03:28:11;25;25;18
70520;PMS5003;58442;52.716;23.560;2023-08-17T03:30:13;23;23;17
70520;PMS5003;58442;52.716;23.560;2023-08-17T03:32:14;18;18;16
70520;PMS5003;58442;52.716;23.560;2023-08-17T03:34:25;24;24;18
70520;PMS5003;58442;52.716;23.560;2023-08-17T03:36:27;21;21;17
70520;PMS5003;58442;52.716;23.560;2023-08-17T03:38:29;22;22;16
70520;PMS5003;58442;52.716;23.560;2023-08-17T03:40:30;24;24;19
70520;PMS5003;58442;52.716;23.560;2023-08-17T03:42:40;23;23;18
70520;PMS5003;58442;52.716;23.560;2023-08-17T03:44:42;20;20;14
70520;PMS5003;58442;52.716;23.560;2023-08-17T03:46:43;24;23;18
70520;PMS5003;58442;52.716;23.560;2023-08-17T03:48:45;24;24;18
70520;PMS5003;58442;52.716;23.560;2023-08-17T03:50:54;25;25;17
70520;PMS5003;58442;52.716;23.560;2023-08-17T03:52:56;22;22;16
70520;PMS5003;58442;52.716;23.560;2023-08-17T03:54:57;24;24;18
70520;PMS5003;58442;52.716;23.560;2023-08-17T03:56:59;21;21;19
70520;PMS5003;58442;52.716;23.560;2023-08-17T03:59:09;30;30;20
70520;PMS5003;58442;52.716;23.560;2023-08-17T04:01:10;24;24;18
70520;PMS5003;58442;52.716;23.560;2023-08-17T04:03:13;26;26;19
70520;PMS5003;58442;52.716;23.560;2023-08-17T04:05:15;27;27;19
70520;PMS5003;58442;52.716;23.560;2023-08-17T04:07:24;28;28;19
70520;PMS5003;58442;52.716;23.560;2023-08-17T04:09:25;26;26;20
70520;PMS5003;58442;52.716;23.560;2023-08-17T04:11:26;29;29;20
70520;PMS5003;58442;52.716;23.560;2023-08-17T04:13:28;26;26;17
70520;PMS5003;58442;52.716;23.560;2023-08-17T04:15:38;21;21;16
70520;PMS5003;58442;52.716;23.560;2023-08-17T04:17:40;30;30;20
70520;PMS5003;58442;52.716;23.560;2023-08-17T04:19:41;19;19;16
70520;PMS5003;58442;52.716;23.560;2023-08-17T04:21:43;29;29;20
70520;PMS5003;58442;52.716;23.560;2023-08-17T04:23:53;20;20;18
70520;PMS5003;58442;52.716;23.560;2023-08-17T04:25:55;26;26;18
70520;PMS5003;58442;52.716;23.560;2023-08-17T04:27:56;23;23;18
70520;PMS5003;58442;52.716;23.560;2023-08-17T04:29:57;27;27;19
70520;PMS5003;58442;52.716;23.560;2023-08-17T04:32:13;28;28;20
70520;PMS5003;58442;52.716;23.560;2023-08-17T04:34:15;24;23;17
70520;PMS5003;58442;52.716;23.560;2023-08-17T04:36:16;23;23;17
70520;PMS5003;58442;52.716;23.560;2023-08-17T04:38:18;24;24;18
70520;PMS5003;58442;52.716;23.560;2023-08-17T04:40:23;25;25;20
70520;PMS5003;58442;52.716;23.560;2023-08-17T04:42:24;21;21;16
70520;PMS5003;58442;52.716;23.560;2023-08-17T04:44:26;24;24;16
70520;PMS5003;58442;52.716;23.560;2023-08-17T04:46:27;22;22;16
70520;PMS5003;58442;52.716;23.560;2023-08-17T04:48:37;28;26;20
70520;PMS5003;58442;52.716;23.560;2023-08-17T04:50:39;29;29;19
70520;PMS5003;58442;52.716;23.560;2023-08-17T04:52:40;24;24;17
70520;PMS5003;58442;52.716;23.560;2023-08-17T04:54:42;24;24;19
70520;PMS5003;58442;52.716;23.560;2023-08-17T04:56:52;25;25;18
70520;PMS5003;58442;52.716;23.560;2023-08-17T04:58:53;20;20;16
70520;PMS5003;58442;52.716;23.560;2023-08-17T05:00:55;31;30;20
70520;PMS5003;58442;52.716;23.560;2023-08-17T05:02:57;27;27;18
70520;PMS5003;58442;52.716;23.560;2023-08-17T05:05:09;26;26;21
70520;PMS5003;58442;52.716;23.560;2023-08-17T05:07:11;28;28;19
70520;PMS5003;58442;52.716;23.560;2023-08-17T05:09:12;28;28;21
70520;PMS5003;58442;52.716;23.560;2023-08-17T05:11:14;29;28;20
70520;PMS5003;58442;52.716;23.560;2023-08-17T05:13:22;24;22;18
70520;PMS5003;58442;52.716;23.560;2023-08-17T05:15:23;22;22;17
70520;PMS5003;58442;52.716;23.560;2023-08-17T05:17:24;31;30;21
70520;PMS5003;58442;52.716;23.560;2023-08-17T05:19:26;29;29;19
70520;PMS5003;58442;52.716;23.560;2023-08-17T05:21:36;25;25;19
70520;PMS5003;58442;52.716;23.560;2023-08-17T05:23:38;24;24;20
70520;PMS5003;58442;52.716;23.560;2023-08-17T05:25:39;26;26;19
70520;PMS5003;58442;52.716;23.560;2023-08-17T05:27:41;26;26;19
70520;PMS5003;58442;52.716;23.560;2023-08-17T05:29:51;27;27;21
70520;PMS5003;58442;52.716;23.560;2023-08-17T05:31:52;30;29;21
70520;PMS5003;58442;52.716;23.560;2023-08-17T05:33:54;28;28;19
70520;PMS5003;58442;52.716;23.560;2023-08-17T05:35:55;31;30;21
70520;PMS5003;58442;52.716;23.560;2023-08-17T05:38:06;27;27;20
70520;PMS5003;58442;52.716;23.560;2023-08-17T05:40:07;25;25;20
70520;PMS5003;58442;52.716;23.560;2023-08-17T05:42:12;28;28;19
70520;PMS5003;58442;52.716;23.560;2023-08-17T05:44:13;30;29;22
70520;PMS5003;58442;52.716;23.560;2023-08-17T05:46:20;34;32;22
70520;PMS5003;58442;52.716;23.560;2023-08-17T05:48:22;28;28;19
70520;PMS5003;58442;52.716;23.560;2023-08-17T05:50:23;28;28;19
70520;PMS5003;58442;52.716;23.560;2023-08-17T05:52:25;25;25;19
70520;PMS5003;58442;52.716;23.560;2023-08-17T05:54:35;30;30;21
70520;PMS5003;58442;52.716;23.560;2023-08-17T05:56:36;30;29;20
70520;PMS5003;58442;52.716;23.560;2023-08-17T05:58:38;29;29;20
70520;PMS5003;58442;52.716;23.560;2023-08-17T06:00:39;30;30;20
70520;PMS5003;58442;52.716;23.560;2023-08-17T06:02:50;26;26;20
70520;PMS5003;58442;52.716;23.560;2023-08-17T06:04:52;28;28;19
70520;PMS5003;58442;52.716;23.560;2023-08-17T06:06:53;27;27;21
70520;PMS5003;58442;52.716;23.560;2023-08-17T06:08:55;30;30;22
70520;PMS5003;58442;52.716;23.560;2023-08-17T06:11:04;24;24;20
70520;PMS5003;58442;52.716;23.560;2023-08-17T06:13:06;30;30;21
70520;PMS5003;58442;52.716;23.560;2023-08-17T06:15:07;29;28;19
70520;PMS5003;58442;52.716;23.560;2023-08-17T06:17:10;25;25;19
70520;PMS5003;58442;52.716;23.560;2023-08-17T06:19:19;25;25;17
70520;PMS5003;58442;52.716;23.560;2023-08-17T06:21:21;27;27;18
70520;PMS5003;58442;52.716;23.560;2023-08-17T06:23:23;29;28;21
70520;PMS5003;58442;52.716;23.560;2023-08-17T06:25:25;26;26;21
70520;PMS5003;58442;52.716;23.560;2023-08-17T06:27:34;24;24;19
70520;PMS5003;58442;52.716;23.560;2023-08-17T06:29:36;26;26;20
70520;PMS5003;58442;52.716;23.560;2023-08-17T06:31:37;33;31;22
70520;PMS5003;58442;52.716;23.560;2023-08-17T06:33:39;31;30;22
70520;PMS5003;58442;52.716;23.560;2023-08-17T06:35:49;30;30;21
70520;PMS5003;58442;52.716;23.560;2023-08-17T06:37:50;27;27;20
70520;PMS5003;58442;52.716;23.560;2023-08-17T06:39:58;29;28;21
70520;PMS5003;58442;52.716;23.560;2023-08-17T06:41:59;30;30;21
70520;PMS5003;58442;52.716;23.560;2023-08-17T06:44:03;32;31;21
70520;PMS5003;58442;52.716;23.560;2023-08-17T06:46:07;23;23;19
70520;PMS5003;58442;52.716;23.560;2023-08-17T06:48:08;26;26;20
70520;PMS5003;58442;52.716;23.560;2023-08-17T06:50:10;28;28;21
70520;PMS5003;58442;52.716;23.560;2023-08-17T06:52:18;27;27;20
70520;PMS5003;58442;52.716;23.560;2023-08-17T06:54:19;32;31;22
70520;PMS5003;58442;52.716;23.560;2023-08-17T06:56:21;28;28;20
70520;PMS5003;58442;52.716;23.560;2023-08-17T06:58:23;25;25;19
70520;PMS5003;58442;52.716;23.560;2023-08-17T07:00:33;25;25;20
70520;PMS5003;58442;52.716;23.560;2023-08-17T07:02:36;29;29;20
70520;PMS5003;58442;52.716;23.560;2023-08-17T07:04:37;33;32;22
70520;PMS5003;58442;52.716;23.560;2023-08-17T07:06:38;31;31;20
70520;PMS5003;58442;52.716;23.560;2023-08-17T07:08:47;25;25;20
70520;PMS5003;58442;52.716;23.560;2023-08-17T07:10:49;27;27;17
70520;PMS5003;58442;52.716;23.560;2023-08-17T07:12:50;29;28;20
70520;PMS5003;58442;52.716;23.560;2023-08-17T07:14:53;25;25;19
70520;PMS5003;58442;52.716;23.560;2023-08-17T07:17:02;25;25;18
70520;PMS5003;58442;52.716;23.560;2023-08-17T07:19:04;31;30;21
70520;PMS5003;58442;52.716;23.560;2023-08-17T07:23:05;25;25;19
70520;PMS5003;58442;52.716;23.560;2023-08-17T07:25:07;27;27;20
70520;PMS5003;58442;52.716;23.560;2023-08-17T07:27:09;26;26;20
70520;PMS5003;58442;52.716;23.560;2023-08-17T07:29:19;33;32;22
70520;PMS5003;58442;52.716;23.560;2023-08-17T07:31:21;28;28;20
70520;PMS5003;58442;52.716;23.560;2023-08-17T07:33:22;23;23;19
70520;PMS5003;58442;52.716;23.560;2023-08-17T07:35:23;27;27;19
70520;PMS5003;58442;52.716;23.560;2023-08-17T07:37:34;34;32;21
70520;PMS5003;58442;52.716;23.560;2023-08-17T07:39:36;25;25;19
70520;PMS5003;58442;52.716;23.560;2023-08-17T07:41:37;29;29;20
70520;PMS5003;58442;52.716;23.560;2023-08-17T07:43:38;24;24;17
70520;PMS5003;58442;52.716;23.560;2023-08-17T07:47:57;25;25;19
70520;PMS5003;58442;52.716;23.560;2023-08-17T07:49:58;25;25;20
70520;PMS5003;58442;52.716;23.560;2023-08-17T07:51:59;26;26;19
70520;PMS5003;58442;52.716;23.560;2023-08-17T07:54:03;25;25;19
70520;PMS5003;58442;52.716;23.560;2023-08-17T07:56:05;28;28;20
70520;PMS5003;58442;52.716;23.560;2023-08-17T07:58:07;30;28;21
70520;PMS5003;58442;52.716;23.560;2023-08-17T08:00:09;26;26;20
70520;PMS5003;58442;52.716;23.560;2023-08-17T08:02:18;31;30;22
70520;PMS5003;58442;52.716;23.560;2023-08-17T08:04:19;25;25;18
70520;PMS5003;58442;52.716;23.560;2023-08-17T08:06:21;27;27;20
70520;PMS5003;58442;52.716;23.560;2023-08-17T08:08:23;26;26;20
70520;PMS5003;58442;52.716;23.560;2023-08-17T08:10:33;25;25;20
70520;PMS5003;58442;52.716;23.560;2023-08-17T08:12:34;27;27;21
70520;PMS5003;58442;52.716;23.560;2023-08-17T08:14:35;27;27;19
70520;PMS5003;58442;52.716;23.560;2023-08-17T08:16:37;26;26;20
70520;PMS5003;58442;52.716;23.560;2023-08-17T08:18:47;28;28;21
70520;PMS5003;58442;52.716;23.560;2023-08-17T08:20:49;23;23;18
70520;PMS5003;58442;52.716;23.560;2023-08-17T08:22:50;27;27;20
70520;PMS5003;58442;52.716;23.560;2023-08-17T08:24:52;27;27;21
70520;PMS5003;58442;52.716;23.560;2023-08-17T08:27:02;27;27;20
70520;PMS5003;58442;52.716;23.560;2023-08-17T08:29:04;24;24;17
70520;PMS5003;58442;52.716;23.560;2023-08-17T08:31:05;28;28;21
70520;PMS5003;58442;52.716;23.560;2023-08-17T08:33:07;23;23;18
70520;PMS5003;58442;52.716;23.560;2023-08-17T08:35:17;27;27;19
70520;PMS5003;58442;52.716;23.560;2023-08-17T08:37:18;22;22;17
70520;PMS5003;58442;52.716;23.560;2023-08-17T08:39:19;19;19;16
70520;PMS5003;58442;52.716;23.560;2023-08-17T08:41:21;25;25;19
70520;PMS5003;58442;52.716;23.560;2023-08-17T08:43:31;24;24;19
70520;PMS5003;58442;52.716;23.560;2023-08-17T08:45:35;23;23;18
70520;PMS5003;58442;52.716;23.560;2023-08-17T08:47:38;24;24;19
70520;PMS5003;58442;52.716;23.560;2023-08-17T08:49:47;25;25;19
70520;PMS5003;58442;52.716;23.560;2023-08-17T08:51:54;26;26;19
70520;PMS5003;58442;52.716;23.560;2023-08-17T08:54:07;21;21;17
70520;PMS5003;58442;52.716;23.560;2023-08-17T08:56:17;20;20;16
70520;PMS5003;58442;52.716;23.560;2023-08-17T08:58:22;22;22;18
70520;PMS5003;58442;52.716;23.560;2023-08-17T09:00:26;25;25;19
70520;PMS5003;58442;52.716;23.560;2023-08-17T09:02:29;21;21;17
70520;PMS5003;58442;52.716;23.560;2023-08-17T09:04:31;20;20;15
70520;PMS5003;58442;52.716;23.560;2023-08-17T09:06:33;17;17;14
70520;PMS5003;58442;52.716;23.560;2023-08-17T09:08:35;22;22;17
70520;PMS5003;58442;52.716;23.560;2023-08-17T09:10:41;21;21;16
70520;PMS5003;58442;52.716;23.560;2023-08-17T09:12:46;19;19;16
70520;PMS5003;58442;52.716;23.560;2023-08-17T09:14:51;17;17;13
70520;PMS5003;58442;52.716;23.560;2023-08-17T09:16:53;16;16;14
70520;PMS5003;58442;52.716;23.560;2023-08-17T09:18:55;14;14;12
70520;PMS5003;58442;52.716;23.560;2023-08-17T09:20:57;15;15;10
70520;PMS5003;58442;52.716;23.560;2023-08-17T09:22:59;15;15;12
70520;PMS5003;58442;52.716;23.560;2023-08-17T09:25:05;16;16;13
70520;PMS5003;58442;52.716;23.560;2023-08-17T09:27:11;15;15;10
70520;PMS5003;58442;52.716;23.560;2023-08-17T09:29:17;16;16;15
70520;PMS5003;58442;52.716;23.560;2023-08-17T09:31:20;11;11;8
70520;PMS5003;58442;52.716;23.560;2023-08-17T09:33:23;11;11;8
70520;PMS5003;58442;52.716;23.560;2023-08-17T09:35:26;15;15;11
70520;PMS5003;58442;52.716;23.560;2023-08-17T09:37:27;12;12;10
70520;PMS5003;58442;52.716;23.560;2023-08-17T09:39:29;12;12;9
70520;PMS5003;58442;52.716;23.560;2023-08-17T09:41:30;10;10;9
70520;PMS5003;58442;52.716;23.560;2023-08-17T09:43:41;9;9;9
70520;PMS5003;58442;52.716;23.560;2023-08-17T09:45:47;9;9;8
70520;PMS5003;58442;52.716;23.560;2023-08-17T09:47:51;11;11;9
70520;PMS5003;58442;52.716;23.560;2023-08-17T09:49:54;12;12;10
70520;PMS5003;58442;52.716;23.560;2023-08-17T09:51:58;11;11;10
70520;PMS5003;58442;52.716;23.560;2023-08-17T09:54:02;11;11;10
70520;PMS5003;58442;52.716;23.560;2023-08-17T09:56:05;10;10;9
70520;PMS5003;58442;52.716;23.560;2023-08-17T09:58:12;8;8;8
70520;PMS5003;58442;52.716;23.560;2023-08-17T10:00:16;12;12;9
70520;PMS5003;58442;52.716;23.560;2023-08-17T10:02:18;9;9;8
70520;PMS5003;58442;52.716;23.560;2023-08-17T10:04:21;14;14;10
70520;PMS5003;58442;52.716;23.560;2023-08-17T10:06:24;9;9;8
70520;PMS5003;58442;52.716;23.560;2023-08-17T10:08:30;22;22;18
70520;PMS5003;58442;52.716;23.560;2023-08-17T10:10:34;13;13;10
70520;PMS5003;58442;52.716;23.560;2023-08-17T10:12:49;10;10;7
70520;PMS5003;58442;52.716;23.560;2023-08-17T10:14:49;14;14;11
70520;PMS5003;58442;52.716;23.560;2023-08-17T10:17:00;12;12;10
70520;PMS5003;58442;52.716;23.560;2023-08-17T10:21:29;10;10;9
70520;PMS5003;58442;52.716;23.560;2023-08-17T10:23:47;9;9;8
70520;PMS5003;58442;52.716;23.560;2023-08-17T10:25:49;9;9;9
70520;PMS5003;58442;52.716;23.560;2023-08-17T10:27:52;11;11;10
70520;PMS5003;58442;52.716;23.560;2023-08-17T10:29:55;14;14;10
70520;PMS5003;58442;52.716;23.560;2023-08-17T10:32:01;9;9;8
70520;PMS5003;58442;52.716;23.560;2023-08-17T10:34:04;7;7;5
70520;PMS5003;58442;52.716;23.560;2023-08-17T10:36:06;10;10;8
70520;PMS5003;58442;52.716;23.560;2023-08-17T10:38:08;10;10;8
70520;PMS5003;58442;52.716;23.560;2023-08-17T10:40:16;9;9;8
70520;PMS5003;58442;52.716;23.560;2023-08-17T10:46:43;9;9;8
70520;PMS5003;58442;52.716;23.560;2023-08-17T10:48:47;52;44;32
70520;PMS5003;58442;52.716;23.560;2023-08-17T10:51:01;13;13;11
70520;PMS5003;58442;52.716;23.560;2023-08-17T10:53:14;13;13;11
70520;PMS5003;58442;52.716;23.560;2023-08-17T10:55:17;11;11;7
70520;PMS5003;58442;52.716;23.560;2023-08-17T10:59:37;9;9;8
70520;PMS5003;58442;52.716;23.560;2023-08-17T11:01:42;9;9;7
70520;PMS5003;58442;52.716;23.560;2023-08-17T11:03:44;9;9;8
70520;PMS5003;58442;52.716;23.560;2023-08-17T11:05:46;9;9;9
70520;PMS5003;58442;52.716;23.560;2023-08-17T11:07:56;7;7;6
70520;PMS5003;58442;52.716;23.560;2023-08-17T11:09:57;10;10;9
70520;PMS5003;58442;52.716;23.560;2023-08-17T11:11:59;10;10;9
70520;PMS5003;58442;52.716;23.560;2023-08-17T11:14:01;10;10;9
70520;PMS5003;58442;52.716;23.560;2023-08-17T11:16:03;10;10;9
70520;PMS5003;58442;52.716;23.560;2023-08-17T11:18:11;7;7;6
70520;PMS5003;58442;52.716;23.560;2023-08-17T11:20:13;11;11;10
70520;PMS5003;58442;52.716;23.560;2023-08-17T11:22:14;9;9;7
70520;PMS5003;58442;52.716;23.560;2023-08-17T11:24:17;8;8;6
70520;PMS5003;58442;52.716;23.560;2023-08-17T11:26:26;9;9;8
70520;PMS5003;58442;52.716;23.560;2023-08-17T11:28:29;9;9;8
70520;PMS5003;58442;52.716;23.560;2023-08-17T11:30:39;9;9;6
70520;PMS5003;58442;52.716;23.560;2023-08-17T11:32:41;10;10;9
70520;PMS5003;58442;52.716;23.560;2023-08-17T11:34:43;11;11;9
70520;PMS5003;58442;52.716;23.560;2023-08-17T11:36:44;7;7;7
70520;PMS5003;58442;52.716;23.560;2023-08-17T11:38:46;8;8;8
70520;PMS5003;58442;52.716;23.560;2023-08-17T11:40:48;6;6;5
70520;PMS5003;58442;52.716;23.560;2023-08-17T11:42:57;7;7;7
70520;PMS5003;58442;52.716;23.560;2023-08-17T11:44:59;8;8;8
70520;PMS5003;58442;52.716;23.560;2023-08-17T11:47:00;9;9;7
70520;PMS5003;58442;52.716;23.560;2023-08-17T11:49:02;8;8;7
70520;PMS5003;58442;52.716;23.560;2023-08-17T11:51:12;7;7;7
70520;PMS5003;58442;52.716;23.560;2023-08-17T11:53:13;7;7;6
70520;PMS5003;58442;52.716;23.560;2023-08-17T11:55:15;8;8;8
70520;PMS5003;58442;52.716;23.560;2023-08-17T11:57:21;9;9;8
70520;PMS5003;58442;52.716;23.560;2023-08-17T11:59:26;7;7;6
70520;PMS5003;58442;52.716;23.560;2023-08-17T12:01:32;9;9;7
70520;PMS5003;58442;52.716;23.560;2023-08-17T12:03:35;10;10;8
70520;PMS5003;58442;52.716;23.560;2023-08-17T12:05:37;8;8;7
70520;PMS5003;58442;52.716;23.560;2023-08-17T12:07:41;8;8;7
70520;PMS5003;58442;52.716;23.560;2023-08-17T12:09:45;10;10;9
70520;PMS5003;58442;52.716;23.560;2023-08-17T12:11:47;8;8;6
70520;PMS5003;58442;52.716;23.560;2023-08-17T12:13:49;7;7;6
70520;PMS5003;58442;52.716;23.560;2023-08-17T12:15:55;8;8;7
70520;PMS5003;58442;52.716;23.560;2023-08-17T12:18:00;11;11;10
70520;PMS5003;58442;52.716;23.560;2023-08-17T12:20:03;11;11;8
70520;PMS5003;58442;52.716;23.560;2023-08-17T12:22:05;8;8;7
70520;PMS5003;58442;52.716;23.560;2023-08-17T12:24:10;9;9;8
70520;PMS5003;58442;52.716;23.560;2023-08-17T12:26:20;12;12;8
70520;PMS5003;58442;52.716;23.560;2023-08-17T12:28:23;9;9;8
70520;PMS5003;58442;52.716;23.560;2023-08-17T12:30:25;11;11;9
70520;PMS5003;58442;52.716;23.560;2023-08-17T12:32:33;8;8;7
70520;PMS5003;58442;52.716;23.560;2023-08-17T12:34:34;8;8;7
70520;PMS5003;58442;52.716;23.560;2023-08-17T12:36:35;11;11;8
70520;PMS5003;58442;52.716;23.560;2023-08-17T12:38:38;10;10;8
70520;PMS5003;58442;52.716;23.560;2023-08-17T12:40:45;10;10;10
70520;PMS5003;58442;52.716;23.560;2023-08-17T12:42:47;10;10;7
70520;PMS5003;58442;52.716;23.560;2023-08-17T12:44:49;8;8;6
70520;PMS5003;58442;52.716;23.560;2023-08-17T12:46:50;7;7;6
70520;PMS5003;58442;52.716;23.560;2023-08-17T12:48:55;10;10;7
70520;PMS5003;58442;52.716;23.560;2023-08-17T12:50:56;7;7;6
70520;PMS5003;58442;52.716;23.560;2023-08-17T12:52:58;10;10;8
70520;PMS5003;58442;52.716;23.560;2023-08-17T12:54:59;10;10;8
70520;PMS5003;58442;52.716;23.560;2023-08-17T12:57:10;11;11;10
70520;PMS5003;58442;52.716;23.560;2023-08-17T12:59:11;9;9;6
70520;PMS5003;58442;52.716;23.560;2023-08-17T13:01:12;11;11;8
70520;PMS5003;58442;52.716;23.560;2023-08-17T13:03:15;11;11;10
70520;PMS5003;58442;52.716;23.560;2023-08-17T13:05:24;12;12;8
70520;PMS5003;58442;52.716;23.560;2023-08-17T13:07:26;11;11;10
70520;PMS5003;58442;52.716;23.560;2023-08-17T13:09:27;11;11;9
70520;PMS5003;58442;52.716;23.560;2023-08-17T13:11:28;10;10;8
70520;PMS5003;58442;52.716;23.560;2023-08-17T13:13:39;9;9;8
70520;PMS5003;58442;52.716;23.560;2023-08-17T13:15:40;10;10;8
70520;PMS5003;58442;52.716;23.560;2023-08-17T13:17:43;11;11;9
70520;PMS5003;58442;52.716;23.560;2023-08-17T13:19:45;8;8;7
70520;PMS5003;58442;52.716;23.560;2023-08-17T13:21:53;10;10;8
70520;PMS5003;58442;52.716;23.560;2023-08-17T13:23:55;7;7;5